Time;durP1;ratioP1;P1;durP2;ratioP2;P2;SDS_P1;SDS_P2;PMS_P1;PMS_P2;Temp;Humidity;BMP_temperature;BMP_pressure;BME280_temperature;BME280_humidity;BME280_pressure;Samples;Min_cycle;Max_cycle;Signal;HPM_P1;HPM_P2
2024/01/20 00:00:56;;;;;;;40.35;12.52;;;;;;;-3.81;100.00;100937.34;12230037;19;20010;-81
2024/01/20 00:04:58;;;;;;;33.30;12.00;;;;;;;-3.72;100.00;100939.25;12209588;19;20019;-83
2024/01/20 00:09:00;;;;;;;35.17;13.80;;;;;;;-3.63;100.00;100943.84;12225225;19;20006;-85
2024/01/20 00:13:03;;;;;;;29.20;12.23;;;;;;;-3.55;100.00;100951.31;12230389;19;20006;-84
2024/01/20 00:17:06;;;;;;;29.20;13.60;;;;;;;-3.53;100.00;100960.13;12209316;19;20011;-82
2024/01/20 00:21:23;;;;;;;30.10;13.13;;;;;;;-3.48;100.00;100958.75;12256524;19;20003;-83
2024/01/20 00:25:25;;;;;;;28.02;10.23;;;;;;;-3.50;100.00;100952.63;12223903;19;20011;-84
2024/01/20 00:29:28;;;;;;;;;;;;;;;-3.50;100.00;100954.47;12202815;19;20010;-83
2024/01/20 00:33:30;;;;;;;40.67;14.32;;;;;;;-3.60;100.00;100964.31;12233228;19;19919;-83
2024/01/20 00:37:34;;;;;;;38.15;14.27;;;;;;;-3.64;100.00;100971.78;12242268;19;20007;-83
2024/01/20 00:41:36;;;;;;;38.08;14.30;;;;;;;-3.60;100.00;100973.25;12221146;19;20022;-84
2024/01/20 00:45:38;;;;;;;34.78;14.93;;;;;;;-3.51;100.00;100966.22;12240787;19;20011;-84
2024/01/20 00:49:40;;;;;;;47.70;15.88;;;;;;;-3.50;100.00;100967.94;12238168;19;20046;-84
2024/01/20 00:53:42;;;;;;;41.47;15.60;;;;;;;-3.49;100.00;100975.03;12223052;19;20010;-85
2024/01/20 00:57:44;;;;;;;39.53;15.18;;;;;;;-3.51;100.00;100972.47;12250921;19;20073;-84
2024/01/20 01:01:47;;;;;;;;;;;;;;;-3.54;100.00;100970.03;12238782;19;20028;-84
2024/01/20 01:05:50;;;;;;;;;;;;;;;-3.53;100.00;100963.66;12254009;19;19923;-84
2024/01/20 01:09:52;;;;;;;43.50;13.30;;;;;;;-3.52;100.00;100969.91;12246436;19;19926;-84
2024/01/20 01:13:55;;;;;;;38.65;15.27;;;;;;;-3.50;100.00;100984.09;12229364;19;20006;-84
2024/01/20 01:17:57;;;;;;;35.25;14.38;;;;;;;-3.65;100.00;100980.03;12247754;19;20107;-84
2024/01/20 01:21:59;;;;;;;46.75;17.08;;;;;;;-3.64;100.00;100979.03;12251926;19;20010;-84
2024/01/20 01:26:10;;;;;;;37.03;15.40;;;;;;;-3.71;100.00;100986.78;12225627;19;20026;-84
2024/01/20 01:30:12;;;;;;;57.15;13.95;;;;;;;-3.83;100.00;100990.50;12246524;19;20057;-84
2024/01/20 01:34:14;;;;;;;43.05;14.85;;;;;;;-3.93;100.00;100996.66;12245717;19;20010;-84
2024/01/20 01:38:16;;;;;;;42.40;14.20;;;;;;;-3.97;100.00;100997.88;12224854;19;20043;-84
2024/01/20 01:42:18;;;;;;;42.97;14.07;;;;;;;-3.97;100.00;101005.94;12244102;19;20127;-84
2024/01/20 01:46:21;;;;;;;37.78;14.32;;;;;;;-3.99;100.00;101012.44;12243259;19;20007;-85
2024/01/20 01:50:23;;;;;;;;;;;;;;;-4.03;100.00;101013.69;12209319;19;20015;-84
2024/01/20 01:54:26;;;;;;;39.03;13.75;;;;;;;-4.07;100.00;101023.00;12229069;19;20233;-85
2024/01/20 01:58:32;;;;;;;34.20;13.88;;;;;;;-4.07;100.00;101028.38;12226112;19;20066;-84
2024/01/20 02:02:37;;;;;;;40.65;14.63;;;;;;;-4.15;100.00;101016.41;12217695;19;20015;-86
2024/01/20 02:06:42;;;;;;;36.28;13.43;;;;;;;-4.14;100.00;101015.41;12239821;19;20030;-84
2024/01/20 02:10:46;;;;;;;41.20;14.75;;;;;;;-4.10;100.00;101007.06;12251012;19;20057;-84
2024/01/20 02:14:49;;;;;;;36.38;14.10;;;;;;;-4.14;100.00;101022.63;12211406;19;20015;-83
2024/01/20 02:18:51;;;;;;;;;;;;;;;-4.18;100.00;101019.34;12228314;19;20007;-84
2024/01/20 02:22:53;;;;;;;31.93;13.13;;;;;;;-4.22;100.00;101025.97;12216833;19;19926;-84
2024/01/20 02:27:03;;;;;;;;;;;;;;;-4.21;100.00;101029.50;12239194;19;20018;-83
2024/01/20 02:31:05;;;;;;;40.45;13.98;;;;;;;-4.23;100.00;101023.38;12271908;19;19943;-82
2024/01/20 02:35:08;;;;;;;42.60;15.02;;;;;;;-4.19;100.00;101027.56;12220846;19;20042;-83
2024/01/20 02:39:10;;;;;;;30.95;13.15;;;;;;;-4.17;100.00;101022.88;12230685;19;20038;-84
2024/01/20 02:43:12;;;;;;;35.25;14.27;;;;;;;-4.19;100.00;101023.03;12233519;19;20021;-85
2024/01/20 02:47:14;;;;;;;37.90;13.63;;;;;;;-4.17;100.00;101029.13;12211245;19;20474;-85
2024/01/20 02:51:16;;;;;;;41.97;13.10;;;;;;;-4.24;100.00;101041.38;12238254;19;20082;-84
2024/01/20 02:55:18;;;;;;;34.80;12.65;;;;;;;-4.28;100.00;101031.84;12245331;19;20022;-83
2024/01/20 02:59:20;;;;;;;60.33;14.23;;;;;;;-4.37;100.00;101044.22;12243888;19;20034;-82
2024/01/20 03:03:22;;;;;;;65.57;14.13;;;;;;;-4.44;100.00;101050.19;12268277;19;20038;-81
2024/01/20 03:07:24;;;;;;;39.13;13.88;;;;;;;-4.49;100.00;101042.50;12263881;19;20007;-82
2024/01/20 03:11:26;;;;;;;39.03;14.15;;;;;;;-4.48;100.00;101048.72;12220628;19;20046;-83
2024/01/20 03:15:28;;;;;;;34.55;11.95;;;;;;;-4.64;100.00;101041.88;12227395;19;20066;-83
2024/01/20 03:19:30;;;;;;;;;;;;;;;-4.73;100.00;101037.25;12239961;19;20015;-83
2024/01/20 03:23:33;;;;;;;32.83;11.75;;;;;;;-4.68;100.00;101035.03;12209875;19;20896;-83
2024/01/20 03:27:35;;;;;;;49.33;12.07;;;;;;;-4.73;100.00;101034.56;12221643;19;20013;-84
2024/01/20 03:31:37;;;;;;;28.42;11.88;;;;;;;-4.77;100.00;101030.38;12229451;19;20010;-83
2024/01/20 03:35:39;;;;;;;32.92;12.35;;;;;;;-4.74;100.00;101045.41;12201832;19;20014;-81
2024/01/20 03:39:41;;;;;;;46.20;14.52;;;;;;;-4.68;100.00;101050.31;12241761;19;20078;-82
2024/01/20 03:43:43;;;;;;;45.63;15.18;;;;;;;-4.65;100.00;101055.44;12240956;19;20058;-83
2024/01/20 03:47:45;;;;;;;40.90;13.38;;;;;;;-4.55;100.00;101061.81;12214540;19;20006;-83
2024/01/20 03:51:47;;;;;;;51.90;14.10;;;;;;;-4.76;100.00;101069.72;12246477;19;20025;-84
2024/01/20 03:55:48;;;;;;;36.63;14.13;;;;;;;-4.95;100.00;101078.38;12226408;19;20043;-82
2024/01/20 03:59:51;;;;;;;44.70;12.65;;;;;;;-5.13;100.00;101086.03;12252713;19;20014;-84
2024/01/20 04:03:53;;;;;;;41.28;13.65;;;;;;;-5.17;100.00;101086.41;12242325;19;20013;-81
2024/01/20 04:07:55;;;;;;;44.47;14.70;;;;;;;-5.20;100.00;101092.84;12221153;19;20010;-83
2024/01/20 04:11:56;;;;;;;40.88;14.23;;;;;;;-5.18;100.00;101096.25;12241955;19;20046;-83
2024/01/20 04:15:58;;;;;;;40.22;13.82;;;;;;;-5.09;100.00;101106.31;12242901;19;20006;-83
2024/01/20 04:20:00;;;;;;;42.75;15.00;;;;;;;-5.05;100.00;101102.44;12214188;19;20082;-84
2024/01/20 04:24:02;;;;;;;39.00;14.05;;;;;;;-4.96;100.00;101111.63;12225407;19;20267;-86
2024/01/20 04:28:04;;;;;;;37.58;12.98;;;;;;;-4.88;100.00;101108.31;12214460;19;20002;-83
2024/01/20 04:32:06;;;;;;;32.70;12.80;;;;;;;-4.75;100.00;101102.88;12212464;19;20034;-84
2024/01/20 04:36:09;;;;;;;44.92;14.02;;;;;;;-4.73;100.00;101096.41;12233725;19;20215;-82
2024/01/20 04:40:11;;;;;;;61.08;13.82;;;;;;;-4.78;100.00;101093.22;12237303;19;20031;-82
2024/01/20 04:44:13;;;;;;;34.25;13.25;;;;;;;-4.88;100.00;101108.31;12217429;19;20047;-83
2024/01/20 04:48:16;;;;;;;40.03;14.32;;;;;;;-4.81;100.00;101098.84;12236166;19;19999;-82
2024/01/20 04:52:19;;;;;;;28.17;11.20;;;;;;;-4.78;100.00;101095.91;12243778;19;20025;-82
2024/01/20 04:56:22;;;;;;;34.10;12.93;;;;;;;-4.76;100.00;101093.06;12213966;19;20018;-84
2024/01/20 05:00:24;;;;;;;41.42;13.18;;;;;;;-4.82;100.00;101113.22;12240654;19;20022;-83
2024/01/20 05:04:27;;;;;;;34.85;13.38;;;;;;;-4.77;100.00;101110.19;12247916;19;20014;-81
2024/01/20 05:08:29;;;;;;;43.38;13.40;;;;;;;-4.70;100.00;101117.69;12200761;19;20025;-84
2024/01/20 05:12:31;;;;;;;40.95;14.50;;;;;;;-4.59;100.00;101119.50;12211462;19;20003;-84
2024/01/20 05:16:33;;;;;;;45.83;14.70;;;;;;;-4.49;100.00;101127.72;12225320;19;20017;-84
2024/01/20 05:20:35;;;;;;;94.50;16.80;;;;;;;-4.57;100.00;101131.03;12199095;19;20025;-82
2024/01/20 05:24:37;;;;;;;45.33;14.90;;;;;;;-4.67;100.00;101133.59;12225985;19;20079;-83
2024/01/20 05:28:39;;;;;;;83.10;18.40;;;;;;;-4.65;100.00;101131.59;12221599;19;20018;-83
2024/01/20 05:32:41;;;;;;;37.70;13.15;;;;;;;-4.64;100.00;101121.69;12191626;19;20043;-83
2024/01/20 05:36:44;;;;;;;91.85;16.50;;;;;;;-4.67;100.00;101122.81;12244175;19;20014;-83
2024/01/20 05:40:45;;;;;;;72.25;14.18;;;;;;;-4.76;100.00;101123.50;12239628;19;20100;-81
2024/01/20 05:44:47;;;;;;;36.83;12.57;;;;;;;-4.78;100.00;101141.63;12259631;19;20044;-81
2024/01/20 05:48:50;;;;;;;37.28;13.57;;;;;;;-4.68;100.00;101155.19;12241028;19;20014;-81
2024/01/20 05:52:52;;;;;;;53.67;14.77;;;;;;;-4.64;100.00;101165.63;12212972;19;20050;-83
2024/01/20 05:56:54;;;;;;;55.05;12.88;;;;;;;-4.72;100.00;101183.31;12233319;19;20508;-81
2024/01/20 06:00:57;;;;;;;28.52;10.65;;;;;;;-4.75;100.00;101183.56;12243401;19;20014;-82
2024/01/20 06:04:59;;;;;;;66.72;13.48;;;;;;;-4.81;100.00;101183.03;12224178;19;20029;-84
2024/01/20 06:09:02;;;;;;;37.08;12.43;;;;;;;-4.77;100.00;101180.13;12244452;19;20006;-85
2024/01/20 06:13:04;;;;;;;39.22;13.02;;;;;;;-4.64;100.00;101175.50;12261417;19;20053;-83
2024/01/20 06:17:06;;;;;;;64.95;13.95;;;;;;;-4.61;100.00;101192.28;12238125;19;19996;-81
2024/01/20 06:21:08;;;;;;;55.22;14.40;;;;;;;-4.56;100.00;101186.53;12246961;19;20019;-82
2024/01/20 06:25:11;;;;;;;40.72;12.05;;;;;;;-4.52;100.00;101184.44;12231424;19;20046;-85
2024/01/20 06:29:12;;;;;;;42.45;14.05;;;;;;;-4.53;100.00;101190.81;12194072;19;20085;-85
2024/01/20 06:33:14;;;;;;;27.93;9.27;;;;;;;-4.48;100.00;101192.19;12215751;19;20682;-85
2024/01/20 06:37:16;;;;;;;108.72;18.77;;;;;;;-4.56;100.00;101210.75;12218796;19;21014;-83
2024/01/20 06:41:18;;;;;;;41.58;12.27;;;;;;;-4.61;100.00;101229.06;12206843;19;20042;-82
2024/01/20 06:45:20;;;;;;;33.58;13.20;;;;;;;-4.56;100.00;101226.03;12223898;19;20017;-81
2024/01/20 06:49:22;;;;;;;36.90;12.57;;;;;;;-4.50;100.00;101223.72;12228871;19;20685;-84
2024/01/20 06:53:24;;;;;;;45.53;12.65;;;;;;;-4.49;100.00;101211.13;12213909;19;20013;-84
2024/01/20 06:57:26;;;;;;;37.22;14.00;;;;;;;-4.41;100.00;101227.53;12243724;19;20015;-82
2024/01/20 07:01:28;;;;;;;37.45;12.57;;;;;;;-4.36;100.00;101241.50;12245381;19;21012;-83
2024/01/20 07:05:30;;;;;;;38.40;13.73;;;;;;;-4.31;100.00;101239.31;12211176;19;20010;-80
2024/01/20 07:09:32;;;;;;;39.15;14.20;;;;;;;-4.38;100.00;101243.44;12228909;19;20014;-84
2024/01/20 07:13:38;;;;;;;63.83;12.88;;;;;;;-4.42;100.00;101252.72;12232416;19;20025;-85
2024/01/20 07:17:40;;;;;;;72.95;16.38;;;;;;;-4.48;100.00;101255.91;12209664;19;20022;-85
2024/01/20 07:21:42;;;;;;;57.70;14.57;;;;;;;-4.42;100.00;101258.97;12221576;19;20056;-85
2024/01/20 07:25:44;;;;;;;41.40;13.23;;;;;;;-4.35;100.00;101262.03;12211907;19;20022;-82
2024/01/20 07:29:46;;;;;;;53.25;14.13;;;;;;;-4.27;100.00;101273.06;12198585;19;20027;-83
2024/01/20 07:33:48;;;;;;;44.22;14.38;;;;;;;-4.21;100.00;101279.81;12249979;19;20015;-80
2024/01/20 07:37:50;;;;;;;41.67;12.15;;;;;;;-4.26;100.00;101290.06;12224607;19;20013;-81
2024/01/20 07:41:52;;;;;;;44.95;14.13;;;;;;;-4.26;100.00;101277.47;12246038;19;20010;-82
2024/01/20 07:45:56;;;;;;;42.35;13.50;;;;;;;-4.20;100.00;101287.75;12241907;19;20024;-83
2024/01/20 07:49:58;;;;;;;71.25;13.73;;;;;;;-4.17;100.00;101287.53;12220466;19;20014;-82
2024/01/20 07:54:00;;;;;;;66.78;15.27;;;;;;;-4.22;100.00;101294.28;12234563;19;20006;-81
2024/01/20 07:58:07;;;;;;;92.63;12.60;;;;;;;-4.30;100.00;101302.91;12229013;19;20018;-82
2024/01/20 08:02:09;;;;;;;33.08;12.90;;;;;;;-4.37;100.00;101297.16;12201627;19;20085;-81
2024/01/20 08:06:11;;;;;;;40.72;14.10;;;;;;;-4.21;100.00;101302.22;12222455;19;20015;-82
2024/01/20 08:10:16;;;;;;;70.30;14.45;;;;;;;-4.14;100.00;101298.06;12218418;19;20011;-83
2024/01/20 08:14:19;;;;;;;74.60;14.55;;;;;;;-4.24;100.00;101310.53;12199991;19;20061;-83
2024/01/20 08:18:21;;;;;;;35.88;11.40;;;;;;;-4.20;100.00;101303.06;12228519;19;20017;-82
2024/01/20 08:22:30;;;;;;;45.00;14.43;;;;;;;-4.02;100.00;101316.94;12229872;19;20017;-81
2024/01/20 08:26:33;;;;;;;42.42;13.48;;;;;;;-3.84;100.00;101320.88;12225916;19;20006;-82
2024/01/20 08:30:35;;;;;;;37.30;11.13;;;;;;;-3.66;100.00;101329.34;12221301;19;20003;-83
2024/01/20 08:34:37;;;;;;;;;;;;;;;-3.79;100.00;101334.00;12222838;19;20031;-84
2024/01/20 08:38:40;;;;;;;18.33;8.40;;;;;;;-3.87;100.00;101333.75;12194246;19;20012;-81
2024/01/20 08:42:43;;;;;;;38.58;14.00;;;;;;;-3.67;100.00;101333.91;12219207;19;20014;-81
2024/01/20 08:46:45;;;;;;;37.35;12.02;;;;;;;-3.49;100.00;101346.91;12217443;19;20029;-82
2024/01/20 08:50:47;;;;;;;32.08;11.50;;;;;;;-3.36;100.00;101344.97;12195512;19;20007;-82
2024/01/20 08:54:49;;;;;;;30.60;9.88;;;;;;;-3.34;100.00;101336.75;12219105;19;20007;-82
2024/01/20 08:58:51;;;;;;;22.13;7.35;;;;;;;-3.28;100.00;101336.25;12194346;19;19999;-80
2024/01/20 09:02:53;;;;;;;31.47;11.83;;;;;;;-3.19;100.00;101337.34;12218472;19;20005;-83
2024/01/20 09:06:55;;;;;;;39.03;11.38;;;;;;;-3.24;100.00;101352.06;12215946;19;20264;-83
2024/01/20 09:10:58;;;;;;;32.65;11.27;;;;;;;-3.18;100.00;101355.22;12198131;19;20018;-83
2024/01/20 09:14:59;;;;;;;;;;;;;;;-3.08;100.00;101364.31;12222162;19;20010;-80
2024/01/20 09:19:01;;;;;;;30.90;10.00;;;;;;;-2.96;100.00;101363.31;12218537;19;20389;-81
2024/01/20 09:23:04;;;;;;;41.40;13.88;;;;;;;-2.95;100.00;101366.88;12200867;19;20035;-84
2024/01/20 09:27:06;;;;;;;41.67;12.05;;;;;;;-2.96;100.00;101362.47;12229509;19;21265;-84
2024/01/20 09:31:08;;;;;;;40.03;14.50;;;;;;;-2.96;100.00;101366.00;12218418;19;20438;-83
2024/01/20 09:35:10;;;;;;;57.75;14.30;;;;;;;-3.00;100.00;101360.03;12200840;19;20063;-82
2024/01/20 09:39:12;;;;;;;43.20;14.13;;;;;;;-2.96;100.00;101366.00;12217461;19;20006;-84
2024/01/20 09:43:15;;;;;;;39.78;12.98;;;;;;;-2.93;100.00;101368.47;12220053;19;20054;-83
2024/01/20 09:47:17;;;;;;;;;;;;;;;-2.82;100.00;101368.44;12197353;19;20383;-82
2024/01/20 09:51:24;;;;;;;44.83;13.80;;;;;;;-2.58;100.00;101360.19;12233524;19;19911;-80
2024/01/20 09:55:27;;;;;;;42.03;14.48;;;;;;;-2.41;100.00;101361.50;12231753;19;20326;-82
2024/01/20 09:59:30;;;;;;;43.90;13.73;;;;;;;-2.29;100.00;101362.31;12202686;19;20729;-80
2024/01/20 10:03:37;;;;;;;42.80;15.10;;;;;;;-2.10;100.00;101356.22;12225548;19;20002;-82
2024/01/20 10:07:41;;;;;;;33.90;11.40;;;;;;;-2.17;100.00;101352.28;12219792;19;20026;-81
2024/01/20 10:11:43;;;;;;;36.33;13.43;;;;;;;-2.25;100.00;101363.75;12207529;19;20596;-84
2024/01/20 10:15:45;;;;;;;34.58;11.82;;;;;;;-2.27;100.00;101376.53;12229338;19;20006;-84
2024/01/20 10:19:47;;;;;;;38.67;12.80;;;;;;;-2.28;100.00;101371.25;12233413;19;20015;-83
2024/01/20 10:23:49;;;;;;;32.03;12.30;;;;;;;-2.14;100.00;101379.03;12212309;19;20021;-84
2024/01/20 10:27:52;;;;;;;34.83;12.93;;;;;;;-1.92;100.00;101373.53;12226308;19;20027;-83
2024/01/20 10:31:54;;;;;;;39.92;12.23;;;;;;;-1.83;100.00;101361.09;12225449;19;20017;-82
2024/01/20 10:35:59;;;;;;;41.95;13.18;;;;;;;-1.71;100.00;101359.19;12206108;19;20007;-84
2024/01/20 10:40:02;;;;;;;39.95;14.68;;;;;;;-1.74;100.00;101348.63;12228137;19;20007;-82
2024/01/20 10:44:06;;;;;;;38.00;13.70;;;;;;;-1.79;100.00;101350.88;12234356;19;20022;-83
2024/01/20 10:48:14;;;;;;;37.05;12.57;;;;;;;-1.72;100.00;101354.78;12203126;19;20007;-83
2024/01/20 10:52:16;;;;;;;33.28;12.65;;;;;;;-1.73;100.00;101347.63;12227551;19;20006;-81
2024/01/20 10:56:19;;;;;;;40.40;13.25;;;;;;;-1.55;100.00;101339.78;12205875;19;20018;-85
2024/01/20 11:00:21;;;;;;;38.05;13.38;;;;;;;-1.47;100.00;101345.38;12229597;19;20014;-82
2024/01/20 11:04:23;;;;;;;39.72;12.85;;;;;;;-1.42;100.00;101343.13;12237287;19;20002;-84
2024/01/20 11:08:26;;;;;;;38.42;13.10;;;;;;;-1.55;100.00;101340.63;12218391;19;20015;-82
2024/01/20 11:12:29;;;;;;;42.63;14.95;;;;;;;-1.73;100.00;101331.44;12241335;19;20006;-83
2024/01/20 11:16:32;;;;;;;49.15;15.18;;;;;;;-1.73;100.00;101332.28;12221131;19;20146;-83
2024/01/20 11:20:34;;;;;;;43.33;15.10;;;;;;;-1.57;100.00;101329.13;12204537;19;20021;-82
2024/01/20 11:24:41;;;;;;;39.20;13.73;;;;;;;-1.49;100.00;101342.78;12224898;19;20113;-84
2024/01/20 11:28:43;;;;;;;47.10;15.65;;;;;;;-1.63;100.00;101340.47;12221534;19;20013;-82
2024/01/20 11:32:45;;;;;;;37.00;12.07;;;;;;;-1.52;100.00;101336.81;12205241;19;19999;-80
2024/01/20 11:36:48;;;;;;;46.20;16.42;;;;;;;-1.23;100.00;101328.84;12224043;19;20014;-84
2024/01/20 11:41:01;;;;;;;42.17;15.38;;;;;;;-1.06;100.00;101325.50;12224564;19;20044;-85
2024/01/20 11:45:05;;;;;;;42.38;15.05;;;;;;;-0.84;100.00;101326.25;12202312;19;20486;-82
2024/01/20 11:49:07;;;;;;;44.75;14.50;;;;;;;-0.82;100.00;101327.84;12217943;19;20011;-83
2024/01/20 11:53:10;;;;;;;50.63;16.23;;;;;;;-1.09;100.00;101331.19;12198981;19;20099;-84
2024/01/20 11:57:24;;;;;;;45.42;16.05;;;;;;;-1.34;100.00;101331.63;12238827;19;20010;-82
2024/01/20 12:01:26;;;;;;;41.13;13.77;;;;;;;-1.42;100.00;101322.38;12256867;19;20025;-81
2024/01/20 12:05:28;;;;;;;44.67;14.63;;;;;;;-1.72;100.00;101327.75;12237965;19;20021;-80
2024/01/20 12:09:31;;;;;;;;;;;;;;;-1.79;100.00;101331.97;12232358;19;20006;-84
2024/01/20 12:13:39;;;;;;;39.63;13.55;;;;;;;-1.65;100.00;101326.22;12227980;19;19922;-85
2024/01/20 12:17:42;;;;;;;50.42;15.15;;;;;;;-1.57;100.00;101320.16;12214872;19;20003;-81
2024/01/20 12:21:45;;;;;;;43.65;15.57;;;;;;;-1.64;100.00;101319.81;12265191;19;20007;-80
2024/01/20 12:25:51;;;;;;;48.05;15.07;;;;;;;-1.66;100.00;101313.72;12265360;19;20047;-80
2024/01/20 12:29:54;;;;;;;47.78;17.48;;;;;;;-1.66;100.00;101314.56;12242295;19;20022;-82
2024/01/20 12:33:56;;;;;;;44.65;14.57;;;;;;;-1.76;100.00;101313.63;12247443;19;20266;-85
2024/01/20 12:37:58;;;;;;;47.35;15.07;;;;;;;-1.72;100.00;101308.84;12239811;19;20045;-85
2024/01/20 12:42:02;;;;;;;36.95;12.80;;;;;;;-1.47;100.00;101294.88;12219629;19;20007;-85
2024/01/20 12:46:04;;;;;;;39.67;14.10;;;;;;;-1.50;100.00;101291.59;12242639;19;20011;-83
2024/01/20 12:50:09;;;;;;;43.97;14.75;;;;;;;-1.36;100.00;101279.56;12244294;19;20264;-86
2024/01/20 12:54:13;;;;;;;40.78;13.93;;;;;;;-1.21;100.00;101275.47;12225556;19;20066;-84
2024/01/20 12:58:14;;;;;;;42.25;15.25;;;;;;;-0.99;100.00;101271.69;12243227;19;20011;-84
2024/01/20 13:02:16;;;;;;;36.17;15.00;;;;;;;-0.70;100.00;101266.31;12231533;19;20267;-82
2024/01/20 13:06:23;;;;;;;46.55;15.68;;;;;;;-0.69;100.00;101262.59;12208456;19;20006;-85
2024/01/20 13:10:25;;;;;;;44.33;15.07;;;;;;;-0.62;100.00;101261.06;12226217;19;20505;-85
2024/01/20 13:14:54;;;;;;;41.33;14.65;;;;;;;-0.85;100.00;101265.03;12224413;19;20533;-83
2024/01/20 13:19:50;;;;;;;47.42;15.20;;;;;;;-0.86;100.00;101257.88;12227852;19;20038;-85
2024/01/20 13:24:36;;;;;;;39.15;15.25;;;;;;;-0.59;100.00;101249.09;12220939;19;20014;-84
2024/01/20 13:29:16;;;;;;;42.42;16.42;;;;;;;-0.71;100.00;101249.22;12234959;19;20031;-83
2024/01/20 13:44:10;;;;;;;45.40;14.90;;;;;;;-0.73;100.00;101248.50;12214317;19;20011;-84
2024/01/20 13:49:03;;;;;;;49.42;16.17;;;;;;;-0.64;100.00;101249.50;12136555;19;20067;-83
2024/01/20 13:53:26;;;;;;;41.63;14.90;;;;;;;-0.41;100.00;101260.91;12245375;19;20654;-82
2024/01/20 13:57:38;;;;;;;42.70;16.50;;;;;;;-0.52;100.00;101252.94;12204281;19;20022;-83
2024/01/20 14:01:43;;;;;;;44.80;16.90;;;;;;;-0.61;100.00;101243.81;12228702;19;20010;-84
2024/01/20 14:06:11;;;;;;;53.45;16.35;;;;;;;-0.61;100.00;101234.84;12208073;19;20006;-83
2024/01/20 14:10:13;;;;;;;48.93;17.07;;;;;;;-0.60;100.00;101237.38;12240740;19;20031;-85
2024/01/20 14:19:48;;;;;;;;;;;;;;;;;;;;;
2024/01/20 14:23:52;;;;;;;55.20;18.90;;;;;;;-0.69;100.00;101239.09;12254364;19;20015;-83
2024/01/20 14:28:00;;;;;;;49.90;17.75;;;;;;;-0.67;100.00;101241.66;12214790;19;20010;-84
2024/01/20 14:32:07;;;;;;;50.60;18.38;;;;;;;-0.81;100.00;101234.81;12232712;19;20014;-84
2024/01/20 14:36:14;;;;;;;46.65;16.80;;;;;;;-0.94;100.00;101251.31;12237295;19;20017;-84
2024/01/20 14:40:45;;;;;;;;;;;;;;;;;;;;;
2024/01/20 14:45:06;;;;;;;53.67;19.02;;;;;;;-1.48;100.00;101249.91;12237037;19;20003;-84
2024/01/20 14:49:44;;;;;;;43.90;18.25;;;;;;;-1.65;100.00;101264.06;12230560;19;20011;-82
2024/01/20 14:54:47;;;;;;;52.80;17.35;;;;;;;-1.68;100.00;101261.63;12240954;19;20009;-82
2024/01/20 14:59:03;;;;;;;57.20;18.50;;;;;;;-1.65;100.00;101266.75;12033232;19;2004407;-82
2024/01/20 15:03:05;;;;;;;51.40;17.63;;;;;;;-1.58;100.00;101267.91;12213080;19;20051;-83
2024/01/20 15:07:30;;;;;;;54.15;17.83;;;;;;;-1.63;100.00;101281.00;12231838;19;20003;-84
2024/01/20 15:17:30;;;;;;;50.65;17.05;;;;;;;-1.71;100.00;101272.69;12040508;19;2004607;-85
2024/01/20 15:21:35;;;;;;;42.85;17.13;;;;;;;-1.75;100.00;101265.88;12200670;19;20280;-85
2024/01/20 15:26:40;;;;;;;;;;;;;;;;;;;;;
2024/01/20 15:31:25;;;;;;;44.40;16.42;;;;;;;-2.01;100.00;101278.94;12231798;19;20014;-85
2024/01/20 15:35:34;;;;;;;53.08;17.60;;;;;;;-2.13;100.00;101287.09;12232938;19;20006;-83
2024/01/20 15:39:45;;;;;;;49.85;15.45;;;;;;;-2.13;100.00;101286.25;12210286;19;20084;-85
2024/01/20 15:43:47;;;;;;;49.55;14.82;;;;;;;-2.20;100.00;101294.03;12232418;19;20014;-85
2024/01/20 15:47:49;;;;;;;43.85;14.90;;;;;;;-2.14;100.00;101279.13;12234382;19;20010;-85
2024/01/20 15:51:51;;;;;;;40.72;14.25;;;;;;;-2.16;100.00;101289.22;12217472;19;20007;-84
2024/01/20 15:55:54;;;;;;;38.10;13.15;;;;;;;-2.26;100.00;101289.16;12235366;19;20053;-85
2024/01/20 16:00:16;;;;;;;;;;;;;;;;;;;;;
2024/01/20 16:10:46;;;;;;;37.28;13.45;;;;;;;-2.47;100.00;101280.16;12234556;19;20033;-84
2024/01/20 16:14:52;;;;;;;35.50;12.57;;;;;;;-2.54;100.00;101280.66;12237001;19;20006;-83
2024/01/20 16:18:55;;;;;;;39.47;12.90;;;;;;;-2.53;100.00;101282.41;12219099;19;20031;-83
2024/01/20 16:23:19;;;;;;;44.92;14.75;;;;;;;-2.56;100.00;101281.78;12231025;19;20006;-84
2024/01/20 16:27:33;;;;;;;37.20;14.07;;;;;;;-2.64;100.00;101265.41;12236869;19;20007;-84
2024/01/20 16:32:17;;;;;;;36.33;14.20;;;;;;;-2.87;100.00;101257.38;12240824;19;20007;-83
2024/01/20 16:36:22;;;;;;;39.03;12.68;;;;;;;-3.02;100.00;101256.78;12233516;19;20002;-83
2024/01/20 16:40:24;;;;;;;36.80;15.32;;;;;;;-3.16;100.00;101248.97;12233565;19;20130;-84
2024/01/20 16:44:53;;;;;;;33.42;12.43;;;;;;;-3.30;100.00;101255.50;12232308;19;20006;-84
2024/01/20 16:49:09;;;;;;;39.28;12.82;;;;;;;-3.38;100.00;101247.19;12210855;19;20032;-84
2024/01/20 16:53:39;;;;;;;37.10;13.35;;;;;;;-3.51;100.00;101246.44;12240572;19;20006;-87
2024/01/20 16:57:47;;;;;;;27.48;11.77;;;;;;;-3.59;100.00;101243.53;12224291;19;20018;-86
2024/01/20 17:01:50;;;;;;;37.35;13.32;;;;;;;-3.66;100.00;101243.16;12241837;19;20007;-84
2024/01/20 17:06:17;;;;;;;33.17;12.45;;;;;;;-3.67;100.00;101242.31;12223533;19;20006;-84
2024/01/20 17:10:30;;;;;;;31.58;10.30;;;;;;;-3.72;100.00;101252.59;12247108;19;20007;-85
2024/01/20 17:15:22;;;;;;;49.58;16.52;;;;;;;-3.80;100.00;101257.75;12246919;19;20021;-85
2024/01/20 17:25:02;;;;;;;34.80;15.25;;;;;;;-3.95;100.00;101264.34;12206462;19;20010;-83
2024/01/20 17:29:22;;;;;;;48.90;17.50;;;;;;;-4.00;100.00;101261.16;12239259;19;20015;-84
2024/01/20 17:33:25;;;;;;;35.40;13.82;;;;;;;-4.08;100.00;101255.50;12230488;19;20049;-85
2024/01/20 17:37:37;;;;;;;31.90;12.65;;;;;;;-4.15;100.00;101258.66;12247241;19;20011;-84
2024/01/20 17:41:40;;;;;;;25.70;9.57;;;;;;;-4.23;100.00;101273.69;12249381;19;20108;-85
2024/01/20 17:45:47;;;;;;;37.40;12.30;;;;;;;-4.27;100.00;101283.00;12226012;19;20022;-83
2024/01/20 17:49:54;;;;;;;29.52;11.50;;;;;;;-4.28;100.00;101283.94;12258581;19;20054;-84
2024/01/20 17:53:56;;;;;;;27.77;11.98;;;;;;;-4.33;100.00;101272.69;12252192;19;20017;-83
2024/01/20 17:57:59;;;;;;;34.80;12.15;;;;;;;-4.38;100.00;101275.72;12252187;19;20014;-84
2024/01/20 18:02:02;;;;;;;28.13;11.25;;;;;;;-4.36;100.00;101271.09;12257500;19;20023;-85
2024/01/20 18:06:05;;;;;;;;;;;;;;;-4.41;100.00;101265.19;12233786;19;20055;-84
2024/01/20 18:10:08;;;;;;;32.13;10.00;;;;;;;-4.43;100.00;101256.38;12252824;19;19930;-84
2024/01/20 18:14:11;;;;;;;35.80;11.13;;;;;;;-4.48;100.00;101261.28;12253712;19;20007;-85
2024/01/20 18:18:13;;;;;;;40.58;13.75;;;;;;;-4.56;100.00;101251.09;12228051;19;20295;-86
2024/01/20 18:22:15;;;;;;;;;;;;;;;-4.60;100.00;101258.53;12237532;19;20027;-85
2024/01/20 18:26:17;;;;;;;29.85;10.52;;;;;;;-4.66;100.00;101244.72;12224641;19;19906;-86
2024/01/20 18:30:19;;;;;;;47.70;16.95;;;;;;;-4.80;100.00;101259.19;12211719;19;20010;-83
2024/01/20 18:34:21;;;;;;;58.85;21.13;;;;;;;-4.96;100.00;101261.31;12271427;19;20002;-81
2024/01/20 18:38:23;;;;;;;46.95;18.67;;;;;;;-4.99;100.00;101261.56;12233737;19;20460;-84
2024/01/20 18:42:26;;;;;;;30.00;11.10;;;;;;;-5.04;100.00;101260.03;12201617;19;20007;-82
2024/01/20 18:46:29;;;;;;;29.55;10.50;;;;;;;-5.08;100.00;101253.19;12222700;19;20030;-85
2024/01/20 18:50:33;;;;;;;29.90;11.02;;;;;;;-5.12;100.00;101264.25;12221565;19;20374;-84
2024/01/20 18:54:41;;;;;;;28.60;10.50;;;;;;;-5.24;100.00;101279.47;12197884;19;20353;-84
2024/01/20 18:58:44;;;;;;;32.40;11.98;;;;;;;-5.28;100.00;101272.59;12219854;19;20029;-82